Time;durP1;ratioP1;P1;durP2;ratioP2;P2;SDS_P1;SDS_P2;PMS_P1;PMS_P2;Temp;Humidity;BMP_temperature;BMP_pressure;BME280_temperature;BME280_humidity;BME280_pressure;Samples;Min_cycle;Max_cycle;Signal;HPM_P1;HPM_P2
2022/04/17 00:02:05;;;;;;;95.45;72.38;;;6.30;99.90;;;;;;4919467;29;20044;-76
2022/04/17 00:04:31;;;;;;;91.15;68.45;;;6.30;99.90;;;;;;4902307;29;20044;-77
2022/04/17 00:06:57;;;;;;;91.20;70.13;;;6.30;99.90;;;;;;4902313;29;20544;-76
2022/04/17 00:09:23;;;;;;;97.40;73.63;;;6.30;99.90;;;;;;4902302;29;20048;-76
2022/04/17 00:11:49;;;;;;;92.70;70.93;;;6.20;99.90;;;;;;4902428;29;20056;-76
2022/04/17 00:14:14;;;;;;;96.35;72.10;;;6.20;99.90;;;;;;4902539;29;20040;-76
2022/04/17 00:16:40;;;;;;;98.00;72.18;;;6.10;99.90;;;;;;4902340;29;20135;-76
2022/04/17 00:19:07;;;;;;;97.05;71.57;;;6.10;99.90;;;;;;4902501;29;20055;-76
2022/04/17 00:21:33;;;;;;;98.93;72.38;;;6.10;99.90;;;;;;4902082;29;20064;-76
2022/04/17 00:23:59;;;;;;;94.68;72.63;;;6.00;99.90;;;;;;4901934;29;20083;-76
2022/04/17 00:26:24;;;;;;;97.95;68.40;;;6.00;99.90;;;;;;4901994;29;20408;-76
2022/04/17 00:28:50;;;;;;;95.05;69.60;;;5.90;99.90;;;;;;4902095;29;20481;-76
2022/04/17 00:31:16;;;;;;;92.93;68.45;;;5.90;99.90;;;;;;4919043;29;20111;-76
2022/04/17 00:33:42;;;;;;;91.22;67.68;;;5.70;99.90;;;;;;4918695;29;20107;-76
2022/04/17 00:36:07;;;;;;;88.00;66.30;;;5.70;99.90;;;;;;4901785;29;20083;-76
2022/04/17 00:38:33;;;;;;;90.72;69.32;;;5.60;99.90;;;;;;4902067;29;20052;-76
2022/04/17 00:40:59;;;;;;;91.88;70.03;;;5.50;99.90;;;;;;4902032;29;20048;-76
2022/04/17 00:43:33;;;;;;;88.78;68.45;;;5.50;99.90;;;;;;4901646;29;20052;-76
2022/04/17 00:45:59;;;;;;;90.00;68.38;;;5.40;99.90;;;;;;4902055;29;20100;-76
2022/04/17 00:48:25;;;;;;;90.57;67.18;;;5.30;99.90;;;;;;4918666;29;20551;-76
2022/04/17 00:50:53;;;;;;;96.55;71.28;;;5.20;99.90;;;;;;4901782;29;20507;-76
2022/04/17 00:53:21;;;;;;;98.03;73.75;;;5.20;99.90;;;;;;4901520;29;20503;-76
2022/04/17 00:55:48;;;;;;;99.70;74.20;;;5.10;99.90;;;;;;4901772;29;20571;-76
2022/04/17 00:58:14;;;;;;;110.60;80.38;;;5.10;99.90;;;;;;4918535;29;20048;-76
2022/04/17 01:00:44;;;;;;;101.32;75.68;;;5.10;99.90;;;;;;4901763;29;20488;-76
2022/04/17 01:03:13;;;;;;;108.53;78.35;;;5.10;99.90;;;;;;4901381;29;20496;-76
2022/04/17 01:05:43;;;;;;;107.00;77.75;;;5.00;99.90;;;;;;4901492;29;20143;-76
2022/04/17 01:08:10;;;;;;;103.95;77.38;;;5.00;99.90;;;;;;4901534;29;20052;-76
2022/04/17 01:10:36;;;;;;;107.22;77.07;;;5.00;99.90;;;;;;4900841;29;20503;-76
2022/04/17 01:13:08;;;;;;;106.72;77.50;;;5.00;99.90;;;;;;4901060;29;20435;-76
2022/04/17 01:15:36;;;;;;;107.90;80.15;;;5.00;99.90;;;;;;4900983;29;20059;-76
2022/04/17 01:18:02;;;;;;;104.47;80.35;;;5.00;99.90;;;;;;4901006;29;20056;-76
2022/04/17 01:20:28;;;;;;;107.85;82.35;;;5.00;99.90;;;;;;4901055;29;20055;-76
2022/04/17 01:28:26;;;;;;;106.35;75.32;;;5.10;99.90;;;;;;4901175;29;20075;-76
2022/04/17 01:30:56;;;;;;;95.18;67.80;;;5.10;99.90;;;;;;4917783;29;20400;-76
2022/04/17 01:33:23;;;;;;;92.75;67.22;;;5.10;99.90;;;;;;4901108;29;20044;-76
2022/04/17 01:35:49;;;;;;;93.28;66.18;;;5.10;99.90;;;;;;4900852;29;20071;-76
2022/04/17 01:38:15;;;;;;;86.97;62.58;;;5.10;99.90;;;;;;4901026;29;20131;-76
2022/04/17 01:40:41;;;;;;;82.10;61.30;;;5.10;99.90;;;;;;4900920;29;20127;-76
2022/04/17 01:43:11;;;;;;;85.60;61.35;;;5.20;99.90;;;;;;4900607;29;20052;-76
2022/04/17 01:45:37;;;;;;;83.97;60.97;;;5.20;99.90;;;;;;4917672;29;20040;-76
2022/04/17 01:48:03;;;;;;;80.38;58.05;;;5.20;99.90;;;;;;4917710;29;20040;-76
2022/04/17 01:50:30;;;;;;;80.80;58.30;;;5.20;99.90;;;;;;4917887;29;20040;-76
2022/04/17 01:53:00;;;;;;;80.55;57.92;;;5.20;99.90;;;;;;4917401;29;20048;-76
2022/04/17 01:55:29;;;;;;;76.68;56.30;;;5.20;99.90;;;;;;4900732;29;20575;-76
2022/04/17 01:57:55;;;;;;;76.80;55.75;;;5.20;99.90;;;;;;4917486;29;20496;-76
2022/04/17 02:00:22;;;;;;;73.90;53.30;;;5.20;99.90;;;;;;4900718;29;20048;-76
2022/04/17 02:02:48;;;;;;;77.85;55.08;;;5.20;99.90;;;;;;4900714;29;20480;-76
2022/04/17 02:05:14;;;;;;;72.55;52.05;;;5.20;99.90;;;;;;4900324;29;20103;-76
2022/04/17 02:07:40;;;;;;;73.47;51.58;;;5.20;99.90;;;;;;4917409;29;20512;-76
2022/04/17 02:10:06;;;;;;;67.40;51.92;;;5.20;99.90;;;;;;4900330;29;20048;-76
2022/04/17 02:12:33;;;;;;;74.03;52.78;;;5.20;99.90;;;;;;4917638;29;20040;-76
2022/04/17 02:14:59;;;;;;;71.72;51.85;;;5.20;99.90;;;;;;4917434;29;20052;-76
2022/04/17 02:17:25;;;;;;;66.53;49.30;;;5.20;99.90;;;;;;4900311;29;20467;-76
2022/04/17 02:19:51;;;;;;;64.75;50.00;;;5.20;99.90;;;;;;4900359;29;20520;-76
2022/04/17 02:22:17;;;;;;;69.45;48.45;;;5.10;99.90;;;;;;4900473;29;20048;-76
2022/04/17 02:24:43;;;;;;;65.63;47.47;;;5.10;99.90;;;;;;4904173;29;20095;-76
2022/04/17 02:27:08;;;;;;;68.53;49.35;;;5.10;99.90;;;;;;4921154;29;20052;-76
2022/04/17 02:29:34;;;;;;;63.88;47.22;;;5.10;99.90;;;;;;4904236;29;20511;-76
2022/04/17 02:31:59;;;;;;;66.85;48.13;;;5.10;99.90;;;;;;4904460;29;20056;-76
2022/04/17 02:34:25;;;;;;;66.65;46.28;;;5.10;99.90;;;;;;4904427;29;20055;-76
2022/04/17 02:36:51;;;;;;;63.38;45.60;;;5.10;99.90;;;;;;4903911;29;20516;-76
2022/04/17 02:39:16;;;;;;;62.83;45.88;;;5.10;99.90;;;;;;4921059;29;20063;-76
2022/04/17 02:41:42;;;;;;;64.97;45.15;;;5.10;99.90;;;;;;4904157;29;20048;-76
2022/04/17 02:44:07;;;;;;;60.88;44.33;;;5.10;99.90;;;;;;4920785;29;20088;-76
2022/04/17 02:49:17;;;;;;;57.72;42.25;;;5.00;99.90;;;;;;4903892;29;20056;-76
2022/04/17 02:51:43;;;;;;;55.75;39.95;;;5.00;99.90;;;;;;4920845;29;20172;-76
2022/04/17 02:54:08;;;;;;;55.95;39.40;;;5.00;99.90;;;;;;4903948;29;20139;-76
2022/04/17 02:56:34;;;;;;;52.10;38.83;;;5.00;99.90;;;;;;4903967;29;20052;-76
2022/04/17 02:58:59;;;;;;;57.55;40.03;;;5.00;99.90;;;;;;4920817;29;20083;-76
2022/04/17 03:06:54;;;;;;;51.55;38.85;;;5.00;99.90;;;;;;4920611;29;20052;-76
2022/04/17 03:09:20;;;;;;;49.42;38.10;;;5.00;99.90;;;;;;4903521;29;20058;-76
2022/04/17 03:11:45;;;;;;;55.05;39.25;;;5.00;99.90;;;;;;4903768;29;20048;-76
2022/04/17 03:14:11;;;;;;;55.67;39.42;;;5.00;99.90;;;;;;4903398;29;20040;-76
2022/04/17 03:16:37;;;;;;;51.08;37.97;;;5.00;99.90;;;;;;4903293;29;20083;-76
2022/04/17 03:19:02;;;;;;;49.72;36.15;;;5.00;99.90;;;;;;4903524;29;20036;-76
2022/04/17 03:21:29;;;;;;;48.45;36.42;;;5.00;99.90;;;;;;4903259;29;20400;-76
2022/04/17 03:23:54;;;;;;;44.58;34.55;;;5.00;99.90;;;;;;4920142;29;20048;-76
2022/04/17 03:26:20;;;;;;;51.10;35.47;;;5.00;99.90;;;;;;4920050;29;20503;-76
2022/04/17 03:28:46;;;;;;;47.53;34.40;;;5.00;99.90;;;;;;4920090;29;20040;-76
2022/04/17 03:31:11;;;;;;;48.08;35.15;;;5.00;99.90;;;;;;4920172;29;20544;-76
2022/04/17 03:33:37;;;;;;;52.95;35.95;;;5.10;99.90;;;;;;4902436;29;20052;-76
2022/04/17 03:36:03;;;;;;;49.75;35.92;;;5.10;99.90;;;;;;4902361;29;20040;-76
2022/04/17 03:38:29;;;;;;;51.50;38.50;;;5.10;99.90;;;;;;4902959;29;20472;-76
2022/04/17 03:40:54;;;;;;;52.17;37.78;;;5.10;99.90;;;;;;4903257;29;20044;-76
2022/04/17 03:43:23;;;;;;;56.00;38.10;;;5.10;99.90;;;;;;4919746;29;20053;-76
2022/04/17 03:45:49;;;;;;;48.83;36.47;;;5.10;99.90;;;;;;4902768;29;20131;-76
2022/04/17 03:48:18;;;;;;;52.15;37.33;;;5.10;99.90;;;;;;4903000;29;20052;-76
2022/04/17 03:50:44;;;;;;;50.40;33.28;;;5.10;99.90;;;;;;4902997;29;20036;-76
2022/04/17 03:53:09;;;;;;;46.05;32.72;;;5.10;99.90;;;;;;4903016;29;20068;-76
2022/04/17 03:55:36;;;;;;;46.92;33.78;;;5.10;99.90;;;;;;4919704;29;20043;-75
2022/04/17 03:58:02;;;;;;;48.45;31.48;;;5.10;99.90;;;;;;4902711;29;20086;-76
2022/04/17 04:00:28;;;;;;;44.08;33.17;;;5.10;99.90;;;;;;4902527;29;20048;-76
2022/04/17 04:02:54;;;;;;;46.00;32.85;;;5.10;99.90;;;;;;4902408;29;20052;-76
2022/04/17 04:05:20;;;;;;;43.50;32.35;;;5.00;99.90;;;;;;4902399;29;20200;-76
2022/04/17 04:07:46;;;;;;;41.22;30.73;;;5.00;99.90;;;;;;4902503;29;20044;-76
2022/04/17 04:10:12;;;;;;;40.67;30.42;;;5.10;99.90;;;;;;4902719;29;20441;-76
2022/04/17 04:12:38;;;;;;;42.72;30.15;;;5.10;99.90;;;;;;4902214;29;20473;-76
2022/04/17 04:15:06;;;;;;;42.22;30.38;;;5.10;99.90;;;;;;4902215;29;20047;-76
2022/04/17 04:17:32;;;;;;;42.20;31.42;;;5.10;99.90;;;;;;4902505;29;20055;-76
2022/04/17 04:19:58;;;;;;;48.25;31.98;;;5.10;99.90;;;;;;4902225;29;20052;-76
2022/04/17 04:22:24;;;;;;;42.95;31.75;;;5.10;99.90;;;;;;4901946;29;20052;-76
2022/04/17 04:24:49;;;;;;;41.70;31.77;;;5.10;99.90;;;;;;4901903;29;20072;-76
2022/04/17 04:29:59;;;;;;;40.83;30.27;;;5.00;99.90;;;;;;4900621;29;20559;-76
2022/04/17 04:32:25;;;;;;;39.60;29.73;;;5.00;99.90;;;;;;4902151;29;20127;-76
2022/04/17 04:34:50;;;;;;;43.25;30.83;;;5.00;99.90;;;;;;4918966;29;20054;-76
2022/04/17 04:37:16;;;;;;;46.53;30.48;;;5.00;99.90;;;;;;4902148;29;20048;-76
2022/04/17 04:39:42;;;;;;;40.67;29.30;;;5.00;99.90;;;;;;4918606;29;20484;-76
2022/04/17 04:42:08;;;;;;;42.70;30.05;;;5.00;99.90;;;;;;4901605;29;20051;-76
2022/04/17 04:44:33;;;;;;;42.45;29.02;;;5.00;99.90;;;;;;4900913;29;20048;-76
2022/04/17 04:46:59;;;;;;;37.90;27.92;;;5.00;99.90;;;;;;4901272;29;20091;-76
2022/04/17 04:49:30;;;;;;;42.95;30.75;;;5.00;99.90;;;;;;4918385;29;20475;-76
2022/04/17 04:52:03;;;;;;;38.83;29.20;;;5.00;99.90;;;;;;4901583;29;20059;-76
2022/04/17 04:54:30;;;;;;;37.88;27.80;;;4.90;99.90;;;;;;4901702;29;20573;-76
2022/04/17 04:56:56;;;;;;;35.83;27.83;;;5.00;99.90;;;;;;4901621;29;20111;-76
2022/04/17 04:59:22;;;;;;;41.13;28.70;;;4.90;99.90;;;;;;4901556;29;20453;-76
2022/04/17 05:01:48;;;;;;;40.35;27.38;;;5.00;99.90;;;;;;4901437;29;20059;-76
2022/04/17 05:04:15;;;;;;;37.67;27.77;;;5.00;99.90;;;;;;4900869;29;20080;-76
2022/04/17 05:06:41;;;;;;;38.72;28.15;;;5.00;99.90;;;;;;4901325;29;20532;-76
2022/04/17 05:09:07;;;;;;;37.67;26.42;;;5.00;99.90;;;;;;4901160;29;20072;-76
2022/04/17 05:11:33;;;;;;;37.85;27.50;;;5.10;99.90;;;;;;4918292;29;20056;-76
2022/04/17 05:13:59;;;;;;;34.85;26.95;;;5.20;99.90;;;;;;4901132;29;20044;-76
2022/04/17 05:16:24;;;;;;;35.63;26.83;;;5.20;99.90;;;;;;4901174;29;20048;-76
2022/04/17 05:19:00;;;;;;;37.15;26.33;;;5.30;99.90;;;;;;4900955;29;20059;-76
2022/04/17 05:21:31;;;;;;;34.47;27.15;;;5.30;99.90;;;;;;4917863;29;20576;-76
2022/04/17 05:23:57;;;;;;;36.67;26.35;;;5.40;99.90;;;;;;4900798;29;20052;-76
2022/04/17 05:26:23;;;;;;;34.38;25.73;;;5.50;99.90;;;;;;4900996;29;20044;-76
2022/04/17 05:28:50;;;;;;;38.40;27.27;;;5.50;99.90;;;;;;4900792;29;20432;-76
2022/04/17 05:31:16;;;;;;;37.28;26.77;;;5.60;99.90;;;;;;4917782;29;20489;-76
2022/04/17 05:33:41;;;;;;;37.78;26.38;;;5.70;99.90;;;;;;4900623;29;20102;-76
2022/04/17 05:36:08;;;;;;;34.78;25.73;;;5.80;99.90;;;;;;4900996;29;20043;-76
2022/04/17 05:38:34;;;;;;;31.95;24.50;;;6.00;99.90;;;;;;4917805;29;20085;-76
2022/04/17 05:40:59;;;;;;;33.53;24.88;;;6.10;99.90;;;;;;4900876;29;20075;-76
2022/04/17 05:43:25;;;;;;;36.03;25.20;;;6.20;99.90;;;;;;4900610;29;20052;-75
2022/04/17 05:45:51;;;;;;;35.60;24.98;;;6.30;99.90;;;;;;4900502;29;20503;-75
2022/04/17 05:48:17;;;;;;;36.25;25.05;;;6.40;99.90;;;;;;4917452;29;20146;-76
2022/04/17 05:50:43;;;;;;;37.13;25.27;;;6.50;99.90;;;;;;4900674;29;20071;-76
2022/04/17 05:53:08;;;;;;;36.88;26.02;;;6.60;99.90;;;;;;4900624;29;20054;-75
2022/04/17 05:55:37;;;;;;;36.50;26.70;;;6.70;99.90;;;;;;4917362;29;20138;-75
2022/04/17 05:58:03;;;;;;;37.67;24.83;;;6.80;99.90;;;;;;4916973;29;20047;-75
2022/04/17 06:00:29;;;;;;;37.45;25.70;;;7.00;99.90;;;;;;4900483;29;20048;-75
2022/04/17 06:02:54;;;;;;;33.40;24.75;;;7.00;99.90;;;;;;4900134;29;20097;-75
2022/04/17 06:05:20;;;;;;;37.83;25.20;;;7.10;99.90;;;;;;4900031;29;20095;-76
2022/04/17 06:07:46;;;;;;;37.15;25.73;;;7.20;99.90;;;;;;4900230;29;20051;-76
2022/04/17 06:10:13;;;;;;;35.05;24.85;;;7.30;99.90;;;;;;4900449;29;20111;-76
2022/04/17 06:12:39;;;;;;;36.28;25.38;;;7.40;99.90;;;;;;4900231;29;20559;-77
2022/04/17 06:15:07;;;;;;;34.63;25.00;;;7.50;99.90;;;;;;4900582;29;20040;-76
2022/04/17 06:17:39;;;;;;;35.42;26.33;;;7.50;99.90;;;;;;4900253;29;20107;-76
2022/04/17 06:20:07;;;;;;;37.70;26.98;;;7.60;99.90;;;;;;4917202;29;20052;-76
2022/04/17 06:22:35;;;;;;;38.40;27.17;;;7.70;99.90;;;;;;4917223;29;20044;-76
2022/04/17 06:25:06;;;;;;;34.80;25.85;;;7.80;99.90;;;;;;4900452;29;20105;-76
2022/04/17 06:27:42;;;;;;;36.28;26.23;;;7.90;99.90;;;;;;4900144;29;20040;-76
2022/04/17 06:30:11;;;;;;;43.90;29.42;;;8.10;99.90;;;;;;4900353;29;20063;-76
2022/04/17 06:32:37;;;;;;;34.10;25.55;;;8.20;99.90;;;;;;4900040;29;20051;-76
2022/04/17 06:35:03;;;;;;;34.70;24.90;;;8.30;99.90;;;;;;4917023;29;20080;-77
2022/04/17 06:37:29;;;;;;;40.67;25.40;;;8.30;99.90;;;;;;4900058;29;20052;-77
2022/04/17 06:39:58;;;;;;;33.60;24.38;;;8.40;99.90;;;;;;4900273;29;20103;-76
2022/04/17 06:42:23;;;;;;;37.25;25.88;;;8.50;99.90;;;;;;4900119;29;20044;-76
2022/04/17 06:44:49;;;;;;;33.10;25.67;;;8.60;99.90;;;;;;4900266;29;20076;-77
2022/04/17 06:47:15;;;;;;;44.05;26.90;;;8.70;99.90;;;;;;4900067;29;20076;-76
2022/04/17 06:49:40;;;;;;;39.50;26.88;;;8.80;99.90;;;;;;4900060;29;20060;-76
2022/04/17 06:52:06;;;;;;;35.63;25.40;;;8.80;99.90;;;;;;4900133;29;20047;-76
2022/04/17 06:54:32;;;;;;;35.05;24.38;;;9.00;99.90;;;;;;4900320;29;20072;-76
2022/04/17 06:56:58;;;;;;;33.70;24.35;;;9.10;99.90;;;;;;4899822;29;20050;-76
2022/04/17 06:59:23;;;;;;;31.17;23.83;;;9.20;99.90;;;;;;4900111;29;20139;-76
2022/04/17 07:01:49;;;;;;;32.80;24.20;;;9.30;99.90;;;;;;4917004;29;20040;-76
2022/04/17 07:04:15;;;;;;;33.03;22.58;;;9.40;99.90;;;;;;4917790;29;20083;-75
2022/04/17 07:06:40;;;;;;;28.77;22.30;;;9.50;99.90;;;;;;4908467;29;20464;-75
2022/04/17 07:09:06;;;;;;;29.45;22.23;;;9.60;99.90;;;;;;4918153;29;20135;-75
2022/04/17 07:11:32;;;;;;;28.38;20.67;;;9.70;99.90;;;;;;4903285;29;20079;-75
2022/04/17 07:13:57;;;;;;;26.25;19.92;;;9.90;99.90;;;;;;4903388;29;20400;-75
2022/04/17 07:16:23;;;;;;;29.27;19.88;;;10.00;99.90;;;;;;4920120;29;20047;-75
2022/04/17 07:18:48;;;;;;;27.70;19.65;;;10.00;99.90;;;;;;4903014;29;20079;-76
2022/04/17 07:21:15;;;;;;;33.03;20.58;;;10.10;99.90;;;;;;4902963;29;20051;-75
2022/04/17 07:23:43;;;;;;;26.60;18.38;;;10.10;99.90;;;;;;4902855;29;20518;-75
2022/04/17 07:26:09;;;;;;;25.67;19.38;;;10.30;99.90;;;;;;4903114;29;20044;-75
2022/04/17 07:28:37;;;;;;;25.17;18.67;;;10.10;99.90;;;;;;4902992;29;20126;-77
2022/04/17 07:31:03;;;;;;;27.20;19.30;;;10.50;99.90;;;;;;4903029;29;20052;-77
2022/04/17 07:33:28;;;;;;;25.42;18.45;;;10.50;99.90;;;;;;4903044;29;20090;-76
2022/04/17 07:35:54;;;;;;;22.77;17.20;;;10.70;99.90;;;;;;4902827;29;20048;-76
2022/04/17 07:38:19;;;;;;;28.10;17.38;;;10.90;99.90;;;;;;4902918;29;20408;-76
2022/04/17 07:40:45;;;;;;;25.58;16.70;;;10.90;99.90;;;;;;4902840;29;20100;-76
2022/04/17 07:43:11;;;;;;;27.33;18.27;;;11.00;99.90;;;;;;4919566;29;20162;-77
2022/04/17 07:45:37;;;;;;;26.75;19.25;;;11.10;99.90;;;;;;4902722;29;20059;-77
2022/04/17 07:48:02;;;;;;;24.65;17.80;;;11.30;99.90;;;;;;4918368;29;20052;-75
2022/04/17 07:50:31;;;;;;;24.95;18.25;;;11.30;99.90;;;;;;4902410;29;20476;-75
2022/04/17 07:52:57;;;;;;;24.05;17.98;;;11.50;99.90;;;;;;4902287;29;20567;-75
2022/04/17 07:55:23;;;;;;;26.65;18.77;;;11.50;99.90;;;;;;4902441;29;20503;-78
2022/04/17 08:00:27;;;;;;;26.75;17.63;;;11.80;99.90;;;;;;4902499;29;20059;-76
2022/04/17 08:03:07;;;;;;;20.45;14.85;;;11.80;99.90;;;;;;4902312;29;20056;-75
2022/04/17 08:05:38;;;;;;;22.55;13.82;;;12.00;99.90;;;;;;4902037;29;20071;-75
2022/04/17 08:08:05;;;;;;;18.85;13.73;;;12.20;99.90;;;;;;4902437;29;20555;-76
2022/04/17 08:10:30;;;;;;;23.30;14.63;;;12.40;99.90;;;;;;4902104;29;20044;-76
2022/04/17 08:12:56;;;;;;;21.95;13.65;;;12.40;99.90;;;;;;4902279;29;20054;-76
2022/04/17 08:15:21;;;;;;;21.58;13.48;;;12.60;99.90;;;;;;4902376;29;20404;-76
2022/04/17 08:17:47;;;;;;;22.98;15.52;;;12.70;99.90;;;;;;4902228;29;20236;-76
2022/04/17 08:20:13;;;;;;;22.50;14.88;;;12.80;99.20;;;;;;4918257;29;20170;-76
2022/04/17 08:22:38;;;;;;;22.23;14.60;;;12.80;95.40;;;;;;4923785;29;20657;-76
2022/04/17 08:25:04;;;;;;;20.00;13.93;;;12.60;95.30;;;;;;4920637;29;20079;-75
2022/04/17 08:27:30;;;;;;;18.75;14.98;;;12.80;96.00;;;;;;4937741;29;20048;-75
2022/04/17 08:29:55;;;;;;;21.27;13.75;;;13.00;96.60;;;;;;4915840;29;20044;-75
2022/04/17 08:32:21;;;;;;;21.15;14.00;;;13.30;96.50;;;;;;4931294;29;20039;-76
2022/04/17 08:34:47;;;;;;;24.10;12.85;;;13.20;93.20;;;;;;4920455;29;20511;-75
2022/04/17 08:37:12;;;;;;;17.30;12.75;;;13.40;91.60;;;;;;4917776;29;20036;-76
2022/04/17 08:39:38;;;;;;;23.23;13.57;;;13.30;90.80;;;;;;4920381;29;20051;-76
2022/04/17 08:42:05;;;;;;;22.45;14.38;;;13.40;92.90;;;;;;4920620;29;20047;-75
2022/04/17 08:44:31;;;;;;;19.83;14.30;;;13.40;90.20;;;;;;4908688;29;20063;-76
2022/04/17 08:46:57;;;;;;;23.08;14.27;;;13.50;92.80;;;;;;4901441;29;20048;-76
2022/04/17 08:49:24;;;;;;;17.80;13.45;;;13.50;92.10;;;;;;4901234;29;20055;-76
2022/04/17 08:51:52;;;;;;;22.67;14.32;;;13.60;91.30;;;;;;4901673;29;20052;-76
2022/04/17 08:54:18;;;;;;;21.45;14.10;;;13.90;95.70;;;;;;4935710;29;20431;-76
2022/04/17 08:56:44;;;;;;;22.13;14.35;;;14.10;95.60;;;;;;4920299;29;20082;-76
2022/04/17 08:59:09;;;;;;;20.13;13.90;;;14.20;92.20;;;;;;4920310;29;20092;-76
2022/04/17 09:01:36;;;;;;;22.23;14.25;;;14.30;92.20;;;;;;4937385;29;20132;-75
2022/04/17 09:04:05;;;;;;;20.10;14.45;;;14.40;86.90;;;;;;4935620;29;20071;-75
2022/04/17 09:06:31;;;;;;;24.73;15.80;;;14.40;87.10;;;;;;4919914;29;20489;-75
2022/04/17 09:09:02;;;;;;;20.40;12.63;;;14.40;88.60;;;;;;4919859;29;20130;-75
2022/04/17 09:11:29;;;;;;;22.73;14.00;;;14.30;86.90;;;;;;4919887;29;20054;-76
2022/04/17 09:13:56;;;;;;;22.77;14.27;;;14.40;85.80;;;;;;4919739;29;20043;-75
2022/04/17 09:16:30;;;;;;;21.23;12.82;;;14.40;88.40;;;;;;4920010;29;20043;-75
2022/04/17 09:18:56;;;;;;;19.48;13.32;;;14.60;89.90;;;;;;4936774;29;20062;-75
2022/04/17 09:21:29;;;;;;;21.98;13.70;;;14.80;85.00;;;;;;4937015;29;20055;-75
2022/04/17 09:24:27;;;;;;;21.73;14.68;;;15.00;84.70;;;;;;4919524;29;20062;-75
2022/04/17 09:26:55;;;;;;;21.55;14.07;;;14.90;79.90;;;;;;4919681;29;20114;-76
2022/04/17 09:29:24;;;;;;;21.65;14.20;;;15.20;84.60;;;;;;4936733;29;20134;-75
2022/04/17 09:32:10;;;;;;;19.98;13.60;;;15.10;81.10;;;;;;4918986;29;20047;-75
2022/04/17 09:34:56;;;;;;;19.40;13.65;;;15.20;79.90;;;;;;4919350;29;20052;-76
2022/04/17 09:37:23;;;;;;;22.75;13.32;;;15.20;78.00;;;;;;4919470;29;20059;-75
2022/04/17 09:39:52;;;;;;;20.90;14.02;;;15.10;77.00;;;;;;4919323;29;20491;-75
2022/04/17 09:42:22;;;;;;;19.13;12.77;;;15.20;79.90;;;;;;4936578;29;20048;-77
2022/04/17 09:44:54;;;;;;;18.40;12.90;;;15.30;75.90;;;;;;4936211;29;20370;-76
2022/04/17 09:47:28;;;;;;;20.83;13.82;;;15.50;79.20;;;;;;4919307;29;20078;-76
2022/04/17 09:49:58;;;;;;;22.15;14.45;;;15.70;80.70;;;;;;4936171;29;20523;-77
2022/04/17 09:52:28;;;;;;;24.25;14.52;;;15.70;74.90;;;;;;4919589;29;20043;-78
2022/04/17 09:54:55;;;;;;;18.45;13.13;;;15.70;76.00;;;;;;4919188;29;20054;-78
2022/04/17 09:57:41;;;;;;;19.27;13.88;;;15.70;79.70;;;;;;4919317;29;20052;-80
2022/04/17 10:00:10;;;;;;;20.65;12.95;;;15.80;70.50;;;;;;4919364;29;20051;-76
2022/04/17 10:02:41;;;;;;;18.90;13.50;;;15.90;75.10;;;;;;4918881;29;20574;-76
2022/04/17 10:05:09;;;;;;;20.42;14.63;;;16.00;74.40;;;;;;4918994;29;20063;-76
2022/04/17 10:07:38;;;;;;;19.88;13.27;;;16.20;72.00;;;;;;4936522;29;20071;-79
2022/04/17 10:10:05;;;;;;;20.30;14.07;;;16.30;75.50;;;;;;4919559;29;20126;-76
2022/04/17 10:12:34;;;;;;;21.38;14.15;;;16.20;72.30;;;;;;4936160;29;20044;-76
2022/04/17 10:15:04;;;;;;;22.50;14.90;;;16.40;72.60;;;;;;4918966;29;20172;-76
2022/04/17 10:17:30;;;;;;;20.17;14.25;;;16.40;74.80;;;;;;4919124;29;20052;-76
2022/04/17 10:20:01;;;;;;;20.92;13.07;;;16.40;65.10;;;;;;4936100;29;20139;-76
2022/04/17 10:22:33;;;;;;;20.20;11.82;;;16.40;68.10;;;;;;4936099;29;20072;-76
2022/04/17 10:24:59;;;;;;;19.00;12.73;;;16.60;66.20;;;;;;4935414;29;20122;-77
2022/04/17 10:27:28;;;;;;;19.25;12.70;;;16.60;59.50;;;;;;4935668;29;20306;-76
2022/04/17 10:30:18;;;;;;;20.92;14.15;;;16.60;63.80;;;;;;4919034;29;20156;-77
2022/04/17 10:33:06;;;;;;;17.33;11.90;;;16.70;62.00;;;;;;4919023;29;20071;-76
2022/04/17 10:36:04;;;;;;;15.77;11.15;;;16.80;65.20;;;;;;4918665;29;20067;-75
2022/04/17 10:38:59;;;;;;;16.98;9.93;;;16.60;53.30;;;;;;4918690;29;20151;-77
2022/04/17 10:41:25;;;;;;;22.85;13.25;;;16.70;56.40;;;;;;4936073;29;20099;-76
2022/04/17 10:44:03;;;;;;;23.80;13.13;;;16.80;55.90;;;;;;4937050;29;20436;-76
2022/04/17 10:46:29;;;;;;;20.73;13.75;;;16.80;57.20;;;;;;4922479;29;20067;-76
2022/04/17 10:49:00;;;;;;;20.88;12.18;;;17.00;61.20;;;;;;4939674;29;20043;-76
2022/04/17 10:51:28;;;;;;;18.17;11.73;;;16.80;55.70;;;;;;4922058;29;20040;-77
2022/04/17 10:54:00;;;;;;;17.48;12.00;;;16.90;55.00;;;;;;4921530;29;20334;-76
2022/04/17 10:56:26;;;;;;;17.20;10.80;;;16.90;53.50;;;;;;4922740;29;20052;-76
2022/04/17 10:58:59;;;;;;;17.20;10.85;;;17.00;53.40;;;;;;4939414;29;20058;-77
2022/04/17 11:01:43;;;;;;;18.20;11.35;;;17.00;53.30;;;;;;4922289;29;20400;-76
2022/04/17 11:04:21;;;;;;;16.13;10.52;;;17.10;55.50;;;;;;4921675;29;20048;-77
2022/04/17 11:07:09;;;;;;;14.90;10.65;;;17.20;53.20;;;;;;4922446;29;20452;-76
2022/04/17 11:09:42;;;;;;;18.58;10.80;;;17.10;49.80;;;;;;4922456;29;20055;-76
2022/04/17 11:12:11;;;;;;;;;;;17.30;52.10;;;;;;4922837;29;20056;-76
2022/04/17 11:14:40;;;;;;;19.10;11.68;;;17.10;51.60;;;;;;4939299;29;19919;-76
2022/04/17 11:17:11;;;;;;;17.77;11.90;;;17.30;52.90;;;;;;4922152;29;20051;-76
2022/04/17 11:19:38;;;;;;;18.67;10.45;;;17.40;55.80;;;;;;4922171;29;20056;-75
2022/04/17 11:22:06;;;;;;;14.77;10.27;;;17.50;53.40;;;;;;4922284;29;20047;-76
2022/04/17 11:25:02;;;;;;;14.85;10.20;;;17.50;50.60;;;;;;4939120;29;20055;-78
2022/04/17 11:27:49;;;;;;;15.00;9.40;;;17.60;52.70;;;;;;4898356;29;20055;-77
2022/04/17 11:30:15;;;;;;;13.95;7.18;;;17.80;50.60;;;;;;4921859;29;20051;-77
2022/04/17 11:32:40;;;;;;;12.27;7.57;;;17.50;44.20;;;;;;4921787;29;20048;-76
2022/04/17 11:35:08;;;;;;;13.00;8.18;;;17.40;44.10;;;;;;4919953;29;20044;-77
2022/04/17 11:37:34;;;;;;;14.45;8.57;;;17.40;44.80;;;;;;4911309;29;20489;-76
2022/04/17 11:40:14;;;;;;;15.35;9.88;;;17.40;46.00;;;;;;4919795;29;20063;-77
2022/04/17 11:42:45;;;;;;;15.52;10.77;;;17.60;48.20;;;;;;4902387;29;20433;-76
2022/04/17 11:45:14;;;;;;;15.25;8.75;;;17.60;49.90;;;;;;4902511;29;20059;-77
2022/04/17 11:47:42;;;;;;;15.73;9.75;;;17.60;45.30;;;;;;4919515;29;20381;-77
2022/04/17 11:50:09;;;;;;;18.08;11.57;;;17.60;48.40;;;;;;4902757;29;20076;-77
2022/04/17 11:52:36;;;;;;;15.18;9.27;;;17.80;49.70;;;;;;4902183;29;20123;-77
2022/04/17 11:55:05;;;;;;;22.27;16.05;;;17.90;48.30;;;;;;4901309;29;20059;-77
2022/04/17 11:57:32;;;;;;;19.88;11.82;;;17.90;49.00;;;;;;4902338;29;20047;-77
2022/04/17 11:59:58;;;;;;;14.82;9.43;;;17.80;47.80;;;;;;4902243;29;20084;-77
2022/04/17 12:02:25;;;;;;;16.45;11.20;;;17.90;48.50;;;;;;4919001;29;20119;-77
2022/04/17 12:04:53;;;;;;;13.93;9.20;;;17.80;46.00;;;;;;4901831;29;20072;-77
2022/04/17 12:07:28;;;;;;;14.25;9.73;;;17.70;46.00;;;;;;4902075;29;20044;-77
2022/04/17 12:10:08;;;;;;;14.85;8.40;;;17.80;47.10;;;;;;4902348;29;20055;-77
2022/04/17 12:12:36;;;;;;;12.85;9.10;;;17.90;46.40;;;;;;4901895;29;20127;-77
2022/04/17 12:15:03;;;;;;;14.15;8.77;;;17.80;46.40;;;;;;4901808;29;20048;-77
2022/04/17 12:17:31;;;;;;;16.63;8.80;;;18.00;46.20;;;;;;4919127;29;20217;-77
2022/04/17 12:19:57;;;;;;;12.57;8.82;;;18.00;47.70;;;;;;4918716;29;20488;-76
2022/04/17 12:22:22;;;;;;;15.80;10.20;;;18.00;45.30;;;;;;4902104;29;20146;-76
2022/04/17 12:24:48;;;;;;;14.43;10.48;;;18.10;47.40;;;;;;4918731;29;20111;-76
2022/04/17 12:27:19;;;;;;;16.35;9.88;;;18.00;45.80;;;;;;4902001;29;20048;-76
2022/04/17 12:29:50;;;;;;;16.67;9.88;;;18.00;49.00;;;;;;4902009;29;20056;-76
2022/04/17 12:32:17;;;;;;;15.57;10.10;;;18.00;47.20;;;;;;4918638;29;20472;-76
2022/04/17 12:34:46;;;;;;;15.05;8.90;;;17.70;44.10;;;;;;4901471;29;20070;-76
2022/04/17 12:37:41;;;;;;;14.73;9.98;;;18.00;47.90;;;;;;4901748;29;20048;-76
2022/04/17 12:40:22;;;;;;;17.95;11.05;;;18.20;47.10;;;;;;4889714;29;20063;-77
2022/04/17 12:42:49;;;;;;;14.30;9.80;;;18.00;45.70;;;;;;4901408;29;20052;-77
2022/04/17 12:45:26;;;;;;;21.00;15.38;;;18.20;48.60;;;;;;4968092;23;20048;-77
2022/04/17 12:48:08;;;;;;;16.15;10.88;;;18.30;49.30;;;;;;4901314;29;20059;-77
2022/04/17 12:50:34;;;;;;;17.85;11.70;;;18.20;48.20;;;;;;4918186;29;20060;-77
2022/04/17 12:53:02;;;;;;;17.13;9.63;;;18.30;46.70;;;;;;4895725;23;20053;-77
2022/04/17 12:55:32;;;;;;;22.92;15.02;;;18.10;46.00;;;;;;4880647;29;20059;-77
2022/04/17 12:57:58;;;;;;;15.10;10.63;;;18.10;47.30;;;;;;4879502;29;20528;-77